Enterprise, FL

10:32 PM EDT on October 14, 2019 (GMT -0400)
Twin Lakes at Deltona | | Change Station
Active Advisory: Flood Warning

Elev 52 ft 28.88 °N, 81.27 °W | Updated 10 seconds ago

Clear
Clear
68 °F
Feels Like 68 °F
N
0
Wind Variable Wind from South
Gusts 0.0 mph

Today
High -- | Low -- °F
--% Chance of Precip.
Yesterday
High -- | Low -- °F
Precip. -- in
Pressure 30.08 in
Visibility 10.0 miles
Clouds Clear
Dew Point 67 °F
Humidity 97%
Rainfall 0.00 in
Snow Depth Not available.
7:25 AM 6:56 PM
Full, 99% visible
METAR KSFB 150153Z 13004KT 10SM CLR 24/21 A3008 RMK AO2 SLP186 T02390211 $
Pressure 30.08 in
Visibility 10.0 miles
Clouds Clear
Dew Point 67 °F
Humidity 97%
Rainfall 0.00 in
Snow Depth Not available.
7:25 AM 6:56 PM
Full, 99% visible
METAR KSFB 150153Z 13004KT 10SM CLR 24/21 A3008 RMK AO2 SLP186 T02390211 $

Get Your Daily Forecast Email!

Thanks for signing up!

Be on the lookout for a verification email in your inbox.

You'll start receiving severe weather alerts in your inbox..

×

10-Day Weather Forecast

Almanac

Astronomy

Oct. 14, 2019 Rise Set
Actual Time
Civil Twilight
Nautical Twilight
Astronomical Twilight
Moon
Length of Visible Light
Length of Day
Tomorrow will be .
, % of the Moon is Illuminated

Today's Extremes

State Highs State Lows

Community

WunderPhotos

Category 6

Welcome to Category 6. This is the collective home for Weather Underground's featured writeups by Dr. Jeff Masters (right), Bob Henson (left), Chris Burt, and other regular contributors.

Nearby

Air Quality

  Air Quality AQ Index Pollutant
Not available.

Snow Depth

Station Depth Elevation

Earthquake Activity

City Distance Mag. Time & Date
Minimum magnitude displayed is 2.5.

Coastal Water Temperatures

Place Temperature

Stations

Nearby Weather Stations

Station Location Temp. Windchill Dew Point Humidity Wind Precip. Elev Updated Type
                   

Watches & Warnings

Flood Warning
Issued: 9:53 AM EDT Oct. 14, 2019 – National Weather Service

The Flood Warning continues for
the St Johns River near Astor.
* Minor flooding is occurring and minor flooding is forecast.

*At 2.8 feet, docks and boat ramps covered at south moon Fish Camp
and approaching sea wall at blair's jungle den.



             Fld observed forecast 7 am EST/8 am EDT
location stg stg day time Tue Wed Thu Fri Sat

St. Johns River
Astor 2.3 2.8 Mon 09 am 2.7 2.7 2.6 2.6 2.5


Lat... Lon 2908 8150 2932 8169 2935 8157 2910 8142


15